Time;durP1;ratioP1;P1;durP2;ratioP2;P2;SDS_P1;SDS_P2;PMS_P1;PMS_P2;Temp;Humidity;BMP_temperature;BMP_pressure;BME280_temperature;BME280_humidity;BME280_pressure;Samples;Min_cycle;Max_cycle;Signal;HPM_P1;HPM_P2
2022/08/23 00:01:14;;;;;;;0.40;0.20;;;18.90;99.90;;;;;;5061118;28;20556;-72
2022/08/23 00:03:41;;;;;;;0.60;0.60;;;18.90;99.90;;;;;;5061292;28;20783;-71
2022/08/23 00:06:08;;;;;;;0.40;0.20;;;18.80;99.90;;;;;;5061747;28;20392;-72
2022/08/23 00:08:34;;;;;;;0.50;0.40;;;18.70;99.90;;;;;;5061711;28;20385;-70
2022/08/23 00:11:00;;;;;;;0.40;0.30;;;18.70;99.90;;;;;;5061215;28;20449;-72
2022/08/23 00:13:27;;;;;;;0.40;0.20;;;18.70;99.90;;;;;;5062651;28;20403;-71
2022/08/23 00:15:52;;;;;;;0.45;0.40;;;18.70;99.90;;;;;;5061452;28;20388;-71
2022/08/23 00:18:19;;;;;;;0.40;0.30;;;18.70;99.90;;;;;;5060196;28;20395;-71
2022/08/23 00:20:45;;;;;;;0.40;0.20;;;18.70;99.90;;;;;;5062903;28;20450;-69
2022/08/23 00:23:11;;;;;;;0.40;0.30;;;18.60;99.90;;;;;;5060409;28;20394;-69
2022/08/23 00:25:36;;;;;;;2.90;1.00;;;18.60;99.90;;;;;;5061588;28;20387;-70
2022/08/23 00:28:02;;;;;;;0.40;0.30;;;18.60;99.90;;;;;;5062720;28;20917;-72
2022/08/23 00:30:28;;;;;;;0.40;0.30;;;18.60;99.90;;;;;;5060539;28;20436;-72
2022/08/23 00:32:54;;;;;;;0.40;0.30;;;18.50;99.90;;;;;;5061602;28;20400;-72
2022/08/23 00:35:19;;;;;;;0.40;0.30;;;18.40;99.90;;;;;;5059937;28;20428;-71
2022/08/23 00:37:45;;;;;;;0.40;0.20;;;18.40;99.90;;;;;;5059850;28;20384;-71
2022/08/23 00:40:15;;;;;;;0.40;0.30;;;18.40;99.90;;;;;;5062473;28;20372;-70
2022/08/23 00:49:16;;;;;;;0.40;0.30;;;18.20;99.90;;;;;;5053091;28;20416;-71
2022/08/23 00:51:56;;;;;;;0.40;0.30;;;18.20;99.90;;;;;;5060651;28;20422;-71
2022/08/23 00:54:23;;;;;;;0.40;0.30;;;18.10;99.90;;;;;;5076454;28;20419;-70
2022/08/23 00:56:50;;;;;;;0.40;0.30;;;18.00;99.90;;;;;;5060361;28;20392;-71
2022/08/23 00:59:16;;;;;;;0.40;0.20;;;18.10;99.90;;;;;;5061594;28;20380;-69
2022/08/23 01:01:42;;;;;;;1.00;0.80;;;18.10;99.90;;;;;;5061331;28;20390;-71
2022/08/23 01:04:11;;;;;;;0.40;0.20;;;18.20;99.90;;;;;;5059684;28;20398;-71
2022/08/23 01:06:44;;;;;;;0.50;0.50;;;18.20;99.90;;;;;;5061163;28;20411;-72
2022/08/23 01:09:18;;;;;;;0.40;0.23;;;18.20;99.90;;;;;;5060427;28;20472;-71
2022/08/23 01:12:03;;;;;;;0.40;0.30;;;18.30;99.90;;;;;;5070271;28;20412;-71
2022/08/23 01:14:32;;;;;;;0.40;0.20;;;18.20;99.90;;;;;;5071397;28;20388;-72
2022/08/23 01:17:05;;;;;;;0.40;0.20;;;18.20;99.90;;;;;;5071941;28;20399;-72
2022/08/23 01:19:47;;;;;;;0.40;0.20;;;18.10;99.90;;;;;;5071714;28;20415;-71
2022/08/23 01:22:30;;;;;;;0.70;0.70;;;18.10;99.90;;;;;;5070224;28;20890;-72
2022/08/23 01:24:56;;;;;;;0.40;0.30;;;18.00;99.90;;;;;;5071679;28;20799;-72
2022/08/23 01:27:21;;;;;;;0.40;0.30;;;18.10;99.90;;;;;;5071566;28;20426;-71
2022/08/23 01:29:47;;;;;;;0.40;0.30;;;17.90;99.90;;;;;;5071689;28;20384;-71
2022/08/23 01:32:13;;;;;;;0.40;0.30;;;17.80;99.90;;;;;;5071379;28;20440;-71
2022/08/23 01:34:39;;;;;;;0.43;0.25;;;17.90;99.90;;;;;;5071323;28;20383;-71
2022/08/23 01:37:06;;;;;;;0.40;0.30;;;17.70;99.90;;;;;;5071421;28;20398;-71
2022/08/23 01:39:33;;;;;;;0.40;0.30;;;17.60;99.90;;;;;;5071383;28;20391;-72
2022/08/23 01:41:58;;;;;;;0.40;0.30;;;17.60;99.90;;;;;;5071347;28;20384;-72
2022/08/23 01:44:25;;;;;;;0.40;0.20;;;17.60;99.90;;;;;;5071044;28;20391;-71
2022/08/23 01:46:51;;;;;;;0.40;0.30;;;17.50;99.90;;;;;;5069950;28;20392;-70
2022/08/23 01:49:17;;;;;;;0.90;0.90;;;17.50;99.90;;;;;;5071060;28;20988;-70
2022/08/23 01:51:42;;;;;;;0.90;0.80;;;17.60;99.90;;;;;;5070968;28;20411;-70
2022/08/23 01:54:08;;;;;;;0.40;0.30;;;17.50;99.90;;;;;;5070975;28;20473;-71
2022/08/23 01:56:35;;;;;;;0.40;0.20;;;17.40;99.90;;;;;;5071305;28;20604;-71
2022/08/23 01:59:01;;;;;;;0.40;0.30;;;17.40;99.90;;;;;;5071007;28;20387;-71
2022/08/23 02:01:26;;;;;;;0.40;0.20;;;17.30;99.90;;;;;;5070870;28;20412;-71
2022/08/23 02:03:52;;;;;;;0.50;0.50;;;17.40;99.90;;;;;;5070586;28;20714;-71
2022/08/23 02:06:17;;;;;;;0.40;0.20;;;17.30;99.90;;;;;;5069465;28;20514;-71
2022/08/23 02:09:01;;;;;;;0.50;0.40;;;17.30;99.90;;;;;;5070702;28;20380;-70
2022/08/23 02:11:39;;;;;;;0.40;0.20;;;17.40;99.90;;;;;;5090491;22;20510;-76
2022/08/23 02:14:08;;;;;;;0.80;0.80;;;17.40;99.90;;;;;;5069968;28;20474;-75
2022/08/23 02:16:40;;;;;;;0.40;0.30;;;17.30;99.90;;;;;;5052705;28;20886;-75
2022/08/23 02:19:10;;;;;;;0.40;0.30;;;17.20;99.90;;;;;;5052645;28;20371;-75
2022/08/23 02:21:36;;;;;;;0.80;0.60;;;17.20;99.90;;;;;;5070237;28;20727;-76
2022/08/23 02:24:06;;;;;;;0.40;0.20;;;17.20;99.90;;;;;;5070280;28;20380;-76
2022/08/23 02:26:34;;;;;;;0.40;0.30;;;17.20;99.90;;;;;;5070339;28;20802;-76
2022/08/23 02:28:59;;;;;;;0.50;0.40;;;17.10;99.90;;;;;;5070381;28;20475;-75
2022/08/23 02:31:25;;;;;;;0.40;0.30;;;17.10;99.90;;;;;;5070326;28;20467;-75
2022/08/23 02:33:50;;;;;;;0.40;0.30;;;17.00;99.90;;;;;;5070189;28;20394;-76
2022/08/23 02:36:16;;;;;;;0.40;0.30;;;17.00;99.90;;;;;;5070649;28;21011;-75
2022/08/23 02:38:42;;;;;;;0.40;0.20;;;17.00;99.90;;;;;;5070354;28;20380;-76
2022/08/23 02:41:08;;;;;;;0.40;0.20;;;17.00;99.90;;;;;;5070242;28;20456;-76
2022/08/23 02:43:35;;;;;;;0.40;0.30;;;17.00;99.90;;;;;;5070011;28;20739;-76
2022/08/23 02:46:02;;;;;;;0.60;0.60;;;17.10;99.90;;;;;;5070229;28;20384;-75
2022/08/23 02:48:31;;;;;;;0.40;0.30;;;17.00;99.90;;;;;;5052257;28;20453;-76
2022/08/23 02:50:59;;;;;;;0.40;0.20;;;17.00;99.90;;;;;;5070166;28;20387;-75
2022/08/23 02:53:25;;;;;;;0.40;0.30;;;16.90;99.90;;;;;;5051860;28;20738;-75
2022/08/23 02:55:50;;;;;;;0.40;0.20;;;16.90;99.90;;;;;;5052266;28;20395;-75
2022/08/23 02:58:16;;;;;;;0.40;0.40;;;16.90;99.90;;;;;;5070104;28;20376;-75
2022/08/23 03:00:46;;;;;;;0.40;0.20;;;16.90;99.90;;;;;;5069974;28;20383;-76
2022/08/23 03:03:12;;;;;;;0.40;0.40;;;16.80;99.90;;;;;;5069671;28;20475;-76
2022/08/23 03:05:37;;;;;;;0.60;0.60;;;16.80;99.90;;;;;;5070001;28;20522;-76
2022/08/23 03:08:04;;;;;;;0.40;0.20;;;16.90;99.90;;;;;;5072183;28;20388;-75
2022/08/23 03:10:30;;;;;;;0.45;0.38;;;16.90;99.90;;;;;;5077467;28;20411;-76
2022/08/23 03:12:55;;;;;;;1.50;1.00;;;16.90;99.90;;;;;;5069501;28;20493;-76
2022/08/23 03:15:21;;;;;;;0.40;0.30;;;16.90;99.90;;;;;;5069795;28;20390;-76
2022/08/23 03:17:47;;;;;;;0.40;0.30;;;17.00;99.90;;;;;;5069895;28;20376;-75
2022/08/23 03:20:13;;;;;;;0.50;0.50;;;17.00;99.90;;;;;;5051992;28;20402;-75
2022/08/23 03:22:39;;;;;;;0.40;0.30;;;16.90;99.90;;;;;;5069183;28;20388;-76
2022/08/23 03:25:05;;;;;;;1.30;1.30;;;16.90;99.90;;;;;;5069791;28;20392;-76
2022/08/23 03:27:31;;;;;;;1.30;1.00;;;16.90;99.90;;;;;;5069804;28;20398;-75
2022/08/23 03:29:57;;;;;;;0.40;0.20;;;16.90;99.90;;;;;;5051737;28;20450;-75
2022/08/23 03:32:22;;;;;;;0.40;0.30;;;16.80;99.90;;;;;;5069886;28;21077;-75
2022/08/23 03:34:48;;;;;;;0.40;0.20;;;16.70;99.90;;;;;;5069916;28;20438;-76
2022/08/23 03:37:14;;;;;;;0.40;0.40;;;16.70;99.90;;;;;;5070022;28;20422;-76
2022/08/23 03:39:39;;;;;;;0.40;0.30;;;16.70;99.90;;;;;;5070158;28;20388;-75
2022/08/23 03:42:06;;;;;;;0.40;0.25;;;16.60;99.90;;;;;;5069952;28;20803;-75
2022/08/23 03:44:32;;;;;;;0.40;0.20;;;16.50;99.90;;;;;;5069755;28;20380;-75
2022/08/23 03:46:58;;;;;;;0.40;0.30;;;16.50;99.90;;;;;;5052239;28;20900;-75
2022/08/23 03:49:23;;;;;;;0.73;0.67;;;16.50;99.90;;;;;;5070476;28;20380;-75
2022/08/23 03:51:49;;;;;;;0.40;0.30;;;16.50;99.90;;;;;;5070109;28;20469;-76
2022/08/23 03:54:14;;;;;;;0.40;0.40;;;16.50;99.90;;;;;;5069870;28;20384;-75
2022/08/23 03:57:01;;;;;;;0.40;0.30;;;16.50;99.90;;;;;;5070222;28;20414;-75
2022/08/23 03:59:28;;;;;;;0.40;0.20;;;16.50;99.90;;;;;;5070326;28;20383;-76
2022/08/23 04:01:54;;;;;;;0.50;0.50;;;16.40;99.90;;;;;;5070192;28;20391;-76
2022/08/23 04:04:20;;;;;;;0.40;0.20;;;16.50;99.90;;;;;;5070151;28;20387;-76
2022/08/23 04:06:46;;;;;;;0.40;0.30;;;16.50;99.90;;;;;;5070175;28;20399;-76
2022/08/23 04:09:13;;;;;;;0.40;0.30;;;16.40;99.90;;;;;;5070348;28;20380;-76
2022/08/23 04:11:38;;;;;;;0.43;0.32;;;16.50;99.90;;;;;;5069774;28;20432;-75
2022/08/23 04:14:05;;;;;;;0.90;0.70;;;16.40;99.90;;;;;;5051700;28;20891;-74
2022/08/23 04:16:36;;;;;;;0.40;0.30;;;16.40;99.90;;;;;;5069755;28;20394;-75
2022/08/23 04:19:07;;;;;;;0.40;0.30;;;16.40;99.90;;;;;;5069882;28;20434;-74
2022/08/23 04:21:35;;;;;;;0.40;0.30;;;16.40;99.90;;;;;;5072756;28;20391;-75
2022/08/23 04:24:00;;;;;;;1.10;1.00;;;16.40;99.90;;;;;;5072968;28;20873;-75
2022/08/23 04:26:26;;;;;;;0.60;0.60;;;16.30;99.90;;;;;;5073347;28;20418;-75
2022/08/23 04:28:51;;;;;;;0.75;0.75;;;16.40;99.90;;;;;;5072827;28;20874;-75
2022/08/23 04:31:19;;;;;;;0.40;0.30;;;16.40;99.90;;;;;;5072922;28;20402;-75
2022/08/23 04:33:44;;;;;;;0.40;0.30;;;16.30;99.90;;;;;;5072715;28;20403;-75
2022/08/23 04:36:10;;;;;;;0.40;0.20;;;16.30;99.90;;;;;;5055114;28;20380;-75
2022/08/23 04:38:35;;;;;;;0.40;0.30;;;16.30;99.90;;;;;;5072993;28;20483;-74
2022/08/23 04:43:46;;;;;;;0.40;0.30;;;16.20;99.90;;;;;;5072843;28;20436;-75
2022/08/23 04:46:14;;;;;;;0.40;0.40;;;16.20;99.90;;;;;;5054654;28;20857;-75
2022/08/23 04:48:41;;;;;;;0.40;0.40;;;16.20;99.90;;;;;;5072829;28;20384;-75
2022/08/23 04:51:06;;;;;;;0.40;0.30;;;16.20;99.90;;;;;;5072707;28;20915;-75
2022/08/23 04:53:34;;;;;;;0.60;0.50;;;16.10;99.90;;;;;;5072260;28;20431;-75
2022/08/23 04:56:01;;;;;;;0.40;0.40;;;16.10;99.90;;;;;;5072773;28;20383;-75
2022/08/23 04:58:30;;;;;;;0.40;0.20;;;16.10;99.90;;;;;;5072697;28;20402;-74
2022/08/23 05:00:58;;;;;;;0.40;0.20;;;16.20;99.90;;;;;;5072421;28;20394;-74
2022/08/23 05:03:24;;;;;;;0.40;0.30;;;16.20;99.90;;;;;;5054155;28;20881;-74
2022/08/23 05:05:51;;;;;;;0.40;0.30;;;16.30;99.90;;;;;;5054361;28;20384;-75
2022/08/23 05:08:17;;;;;;;0.40;0.30;;;16.30;99.90;;;;;;5072431;28;20466;-75
2022/08/23 05:10:43;;;;;;;0.50;0.50;;;16.30;99.90;;;;;;5072734;28;20416;-75
2022/08/23 05:13:08;;;;;;;0.40;0.30;;;16.30;99.90;;;;;;5074522;28;20400;-75
2022/08/23 05:15:34;;;;;;;0.50;0.50;;;16.30;99.90;;;;;;5055375;28;20394;-75
2022/08/23 05:18:00;;;;;;;0.40;0.30;;;16.40;99.90;;;;;;5072312;28;20891;-75
2022/08/23 05:20:25;;;;;;;0.60;0.60;;;16.40;99.90;;;;;;5072542;28;20396;-75
2022/08/23 05:22:51;;;;;;;0.40;0.30;;;16.40;99.90;;;;;;5071367;28;20778;-75
2022/08/23 05:25:17;;;;;;;0.40;0.20;;;16.40;99.90;;;;;;5072195;28;20383;-75
2022/08/23 05:27:42;;;;;;;0.40;0.30;;;16.40;99.90;;;;;;5053942;28;20399;-75
2022/08/23 05:30:10;;;;;;;0.40;0.30;;;16.50;99.90;;;;;;5053582;28;20380;-75
2022/08/23 05:32:35;;;;;;;0.40;0.30;;;16.40;99.90;;;;;;5071077;28;20403;-75
2022/08/23 05:35:01;;;;;;;0.40;0.30;;;16.40;99.90;;;;;;5071705;28;20388;-75
2022/08/23 05:37:27;;;;;;;0.40;0.20;;;16.50;99.90;;;;;;5071676;28;20379;-75
2022/08/23 05:39:53;;;;;;;0.40;0.20;;;16.60;99.90;;;;;;5071695;28;20470;-75
2022/08/23 05:42:18;;;;;;;0.50;0.50;;;16.50;99.90;;;;;;5071387;28;20520;-75
2022/08/23 05:44:44;;;;;;;0.40;0.20;;;16.50;99.90;;;;;;5053135;28;20621;-75
2022/08/23 05:47:11;;;;;;;0.40;0.20;;;16.60;99.90;;;;;;5053557;28;20380;-75
2022/08/23 05:49:37;;;;;;;0.40;0.30;;;16.70;99.90;;;;;;5071377;28;20388;-75
2022/08/23 05:52:04;;;;;;;0.40;0.20;;;16.70;99.90;;;;;;5071277;28;20403;-75
2022/08/23 05:54:30;;;;;;;0.40;0.20;;;16.80;99.90;;;;;;5053095;28;20429;-76
2022/08/23 05:56:56;;;;;;;0.40;0.20;;;16.80;99.90;;;;;;5071635;28;20454;-75
2022/08/23 05:59:21;;;;;;;0.40;0.20;;;16.90;99.90;;;;;;5071466;28;20391;-76
2022/08/23 06:01:47;;;;;;;0.40;0.30;;;16.90;99.90;;;;;;5053497;28;20451;-76
2022/08/23 06:04:13;;;;;;;0.40;0.40;;;16.90;99.90;;;;;;5071287;28;20433;-76
2022/08/23 06:06:40;;;;;;;0.40;0.30;;;17.10;99.90;;;;;;5071280;28;20386;-76
2022/08/23 06:09:09;;;;;;;0.40;0.20;;;17.20;99.90;;;;;;5071132;28;20387;-75
2022/08/23 06:11:35;;;;;;;0.40;0.20;;;17.30;99.90;;;;;;5053107;28;20907;-76
2022/08/23 06:14:03;;;;;;;0.40;0.25;;;17.40;99.90;;;;;;5070835;28;20376;-76
2022/08/23 06:16:35;;;;;;;0.40;0.30;;;17.40;99.90;;;;;;5071007;28;20479;-76
2022/08/23 06:19:01;;;;;;;0.70;0.70;;;17.40;99.90;;;;;;5053338;28;20442;-75
2022/08/23 06:21:28;;;;;;;0.40;0.30;;;17.40;99.90;;;;;;5070254;28;20390;-75
2022/08/23 06:23:54;;;;;;;0.40;0.25;;;17.60;99.90;;;;;;5070671;28;20384;-75
2022/08/23 06:26:30;;;;;;;0.50;0.50;;;17.60;99.90;;;;;;5070839;28;20386;-76
2022/08/23 06:28:58;;;;;;;0.40;0.40;;;17.70;99.90;;;;;;5052941;28;20386;-76
2022/08/23 06:31:44;;;;;;;0.50;0.50;;;17.90;99.90;;;;;;5052823;28;20405;-76
2022/08/23 06:34:17;;;;;;;0.40;0.20;;;17.90;99.90;;;;;;5070584;28;20387;-76
2022/08/23 06:36:47;;;;;;;0.40;0.30;;;18.00;99.90;;;;;;5053070;28;20513;-76
2022/08/23 06:39:14;;;;;;;0.70;0.60;;;18.00;99.90;;;;;;5070859;28;20384;-76
2022/08/23 06:41:40;;;;;;;0.40;0.20;;;18.10;99.90;;;;;;5070585;28;20372;-75
2022/08/23 06:44:07;;;;;;;0.40;0.30;;;18.10;99.90;;;;;;5069842;28;20387;-77
2022/08/23 06:46:33;;;;;;;0.40;0.20;;;18.20;99.90;;;;;;5070984;28;20417;-76
2022/08/23 06:49:00;;;;;;;0.40;0.30;;;18.30;99.90;;;;;;5053246;28;20376;-76
2022/08/23 06:51:32;;;;;;;0.40;0.20;;;18.30;99.90;;;;;;5071001;28;20799;-77
2022/08/23 06:54:01;;;;;;;0.40;0.30;;;18.50;99.90;;;;;;5052225;28;20399;-76
2022/08/23 06:56:28;;;;;;;0.40;0.20;;;18.60;99.90;;;;;;5070770;28;20470;-76
2022/08/23 06:58:53;;;;;;;0.40;0.20;;;18.70;99.90;;;;;;5070973;28;20390;-76
2022/08/23 07:01:29;;;;;;;0.40;0.30;;;18.80;99.90;;;;;;5071184;28;20877;-76
2022/08/23 07:03:56;;;;;;;0.80;0.73;;;18.80;99.90;;;;;;5070773;28;20750;-76
2022/08/23 07:06:22;;;;;;;0.40;0.20;;;18.90;99.90;;;;;;5070506;28;20819;-76
2022/08/23 07:08:48;;;;;;;0.40;0.20;;;19.10;99.90;;;;;;5070242;28;20479;-76
2022/08/23 07:11:14;;;;;;;0.40;0.30;;;19.20;99.90;;;;;;5069958;28;20423;-75
2022/08/23 07:13:39;;;;;;;0.40;0.30;;;19.30;99.90;;;;;;5069835;28;20552;-76
2022/08/23 07:16:05;;;;;;;0.40;0.30;;;19.40;99.90;;;;;;5070266;28;20437;-75
2022/08/23 07:18:31;;;;;;;0.40;0.20;;;19.50;99.90;;;;;;5070347;28;20414;-76
2022/08/23 07:21:02;;;;;;;0.40;0.20;;;19.50;99.90;;;;;;5070174;28;20407;-76
2022/08/23 07:23:32;;;;;;;0.40;0.30;;;19.60;99.90;;;;;;5051850;28;20391;-75
2022/08/23 07:26:00;;;;;;;0.40;0.20;;;19.70;99.90;;;;;;5070188;28;20463;-75
2022/08/23 07:28:26;;;;;;;0.40;0.40;;;19.80;99.90;;;;;;5052189;28;20776;-75
2022/08/23 07:30:51;;;;;;;0.40;0.20;;;19.80;99.90;;;;;;5052409;28;20466;-76
2022/08/23 07:33:17;;;;;;;0.40;0.30;;;20.00;99.90;;;;;;5069732;28;20491;-76
2022/08/23 07:35:50;;;;;;;0.40;0.30;;;20.00;99.90;;;;;;5069953;28;20892;-76
2022/08/23 07:38:16;;;;;;;0.40;0.30;;;20.10;99.90;;;;;;5052122;28;20451;-77
2022/08/23 07:40:44;;;;;;;0.40;0.20;;;20.20;99.90;;;;;;5070011;28;20380;-77
2022/08/23 07:43:10;;;;;;;0.40;0.30;;;20.30;99.90;;;;;;5069570;28;20398;-77
2022/08/23 07:45:37;;;;;;;0.40;0.30;;;20.40;99.90;;;;;;5069915;28;20795;-77
2022/08/23 07:48:03;;;;;;;0.40;0.30;;;20.50;99.90;;;;;;5069900;28;20410;-76
2022/08/23 07:50:29;;;;;;;0.40;0.30;;;20.60;99.90;;;;;;5069804;28;20897;-76
2022/08/23 07:52:55;;;;;;;0.40;0.30;;;20.80;99.90;;;;;;5051440;28;20537;-76
2022/08/23 07:55:21;;;;;;;0.40;0.20;;;21.10;99.90;;;;;;5055177;28;20889;-76
2022/08/23 07:57:47;;;;;;;0.40;0.30;;;21.40;99.90;;;;;;5055661;28;20387;-76
2022/08/23 08:00:13;;;;;;;0.40;0.30;;;21.50;99.90;;;;;;5073643;28;20386;-76
2022/08/23 08:02:39;;;;;;;0.40;0.20;;;21.60;99.90;;;;;;5073106;28;20422;-76
2022/08/23 08:05:05;;;;;;;0.40;0.30;;;21.70;99.90;;;;;;5073604;28;20470;-76
2022/08/23 08:07:31;;;;;;;0.40;0.40;;;21.90;99.90;;;;;;5073369;28;20395;-77
2022/08/23 08:09:57;;;;;;;0.40;0.30;;;21.90;99.90;;;;;;5073352;28;20853;-76
2022/08/23 08:12:23;;;;;;;0.40;0.20;;;21.90;99.90;;;;;;5092793;22;20792;-73
2022/08/23 08:14:49;;;;;;;0.40;0.30;;;21.80;99.90;;;;;;5054874;28;20391;-73
2022/08/23 08:17:16;;;;;;;0.40;0.25;;;22.10;99.90;;;;;;5073707;28;20387;-73
2022/08/23 08:19:42;;;;;;;0.40;0.30;;;22.00;99.90;;;;;;5054950;28;20426;-73
2022/08/23 08:22:08;;;;;;;0.40;0.20;;;22.10;99.90;;;;;;5071912;28;20383;-73
2022/08/23 08:24:34;;;;;;;0.50;0.50;;;22.00;99.90;;;;;;5073316;28;20759;-73
2022/08/23 08:26:59;;;;;;;0.40;0.20;;;22.10;99.90;;;;;;5073605;28;20391;-73
2022/08/23 08:29:25;;;;;;;0.70;0.60;;;22.20;99.90;;;;;;5073699;28;20459;-73
2022/08/23 08:31:51;;;;;;;0.60;0.60;;;22.20;99.90;;;;;;5075306;28;20384;-73
2022/08/23 08:34:17;;;;;;;0.40;0.30;;;22.20;99.90;;;;;;5073519;28;20763;-73
2022/08/23 08:36:54;;;;;;;0.40;0.30;;;22.20;99.90;;;;;;5073637;28;20484;-73
2022/08/23 08:39:26;;;;;;;0.50;0.40;;;22.30;99.90;;;;;;5073218;28;20380;-73
2022/08/23 08:41:58;;;;;;;0.50;0.50;;;22.60;99.90;;;;;;5073082;28;20866;-73
2022/08/23 08:44:37;;;;;;;0.40;0.20;;;22.60;99.90;;;;;;5073179;28;20425;-74
2022/08/23 08:47:12;;;;;;;0.40;0.30;;;22.60;99.90;;;;;;5073273;28;20460;-74
2022/08/23 08:49:50;;;;;;;0.40;0.30;;;22.70;99.90;;;;;;5073910;28;20431;-75
2022/08/23 08:52:27;;;;;;;0.50;0.40;;;22.70;99.90;;;;;;5073158;28;20407;-74
2022/08/23 08:55:09;;;;;;;0.40;0.30;;;22.80;99.90;;;;;;5073234;28;20383;-74
2022/08/23 08:57:42;;;;;;;0.40;0.20;;;22.90;99.50;;;;;;5073102;28;20376;-72
2022/08/23 09:00:12;;;;;;;0.40;0.30;;;22.90;99.80;;;;;;5073844;28;20387;-73
2022/08/23 09:02:38;;;;;;;0.40;0.20;;;23.00;99.90;;;;;;5073448;28;20388;-73
2022/08/23 09:05:30;;;;;;;1.10;1.00;;;23.20;99.90;;;;;;5072604;28;20525;-73
2022/08/23 09:08:01;;;;;;;0.40;0.30;;;23.10;99.60;;;;;;5072702;28;20949;-73
2022/08/23 09:10:33;;;;;;;0.40;0.30;;;23.20;99.90;;;;;;5072697;28;20394;-73
2022/08/23 09:13:42;;;;;;;0.40;0.30;;;23.20;99.90;;;;;;5072027;28;20559;-73
2022/08/23 09:16:13;;;;;;;0.40;0.30;;;23.20;99.50;;;;;;5072490;28;20380;-73
2022/08/23 09:18:39;;;;;;;0.40;0.30;;;23.40;99.90;;;;;;5054269;28;20475;-75
2022/08/23 09:21:07;;;;;;;0.40;0.30;;;23.50;99.40;;;;;;5071609;28;20475;-74
2022/08/23 09:23:37;;;;;;;0.40;0.20;;;23.30;99.60;;;;;;5071772;28;20495;-75
2022/08/23 09:26:14;;;;;;;0.40;0.40;;;23.40;99.00;;;;;;5072193;28;20379;-74
2022/08/23 09:28:40;;;;;;;0.40;0.20;;;23.40;99.20;;;;;;5054178;28;20924;-74
2022/08/23 09:31:06;;;;;;;0.40;0.20;;;23.50;99.20;;;;;;5072042;28;20486;-74
2022/08/23 09:33:44;;;;;;;0.40;0.30;;;23.60;98.00;;;;;;5071621;28;20430;-74
2022/08/23 09:36:26;;;;;;;0.40;0.30;;;23.80;97.20;;;;;;5071876;28;20433;-74
2022/08/23 09:39:01;;;;;;;0.40;0.30;;;23.90;97.00;;;;;;5071728;28;20375;-74
2022/08/23 09:41:38;;;;;;;0.40;0.30;;;23.90;97.40;;;;;;5061832;28;20863;-74
2022/08/23 09:44:12;;;;;;;0.40;0.30;;;24.00;95.80;;;;;;5043290;28;20401;-75
2022/08/23 09:46:41;;;;;;;0.40;0.27;;;24.10;94.80;;;;;;5060612;28;20732;-74
2022/08/23 09:49:27;;;;;;;0.40;0.30;;;24.10;95.10;;;;;;5059575;28;20378;-74
2022/08/23 09:51:56;;;;;;;0.40;0.20;;;24.20;94.80;;;;;;5041731;28;20473;-74
2022/08/23 09:54:28;;;;;;;0.40;0.30;;;24.20;95.20;;;;;;5059309;28;20441;-74
2022/08/23 09:57:03;;;;;;;2.20;0.80;;;24.20;94.80;;;;;;5059882;28;20464;-74
2022/08/23 09:59:44;;;;;;;0.40;0.30;;;24.30;95.00;;;;;;5059169;28;20381;-74
2022/08/23 10:02:30;;;;;;;0.40;0.30;;;24.30;94.50;;;;;;5059329;28;20504;-75
2022/08/23 10:05:26;;;;;;;0.40;0.40;;;24.40;94.10;;;;;;5059809;28;20808;-74
2022/08/23 10:07:55;;;;;;;0.40;0.30;;;24.60;92.80;;;;;;5059088;28;20752;-74
2022/08/23 10:10:28;;;;;;;0.40;0.40;;;24.60;93.60;;;;;;5059686;28;20387;-75
2022/08/23 10:12:55;;;;;;;0.40;0.20;;;24.70;92.30;;;;;;5058889;28;20406;-74
2022/08/23 10:15:40;;;;;;;0.40;0.30;;;24.90;91.30;;;;;;5059478;28;20384;-75
2022/08/23 10:18:45;;;;;;;0.60;0.60;;;24.90;91.60;;;;;;5060938;28;20387;-74
2022/08/23 10:21:19;;;;;;;0.40;0.30;;;25.10;90.90;;;;;;5060272;28;20475;-75
2022/08/23 10:24:02;;;;;;;2.20;0.77;;;25.00;90.90;;;;;;5060389;28;20951;-74
2022/08/23 10:26:31;;;;;;;0.40;0.20;;;25.20;90.10;;;;;;5060807;28;20375;-74
2022/08/23 10:32:10;;;;;;;0.40;0.20;;;25.20;89.30;;;;;;5059687;28;20739;-74
2022/08/23 10:35:19;;;;;;;0.40;0.20;;;25.40;86.80;;;;;;5059096;28;20456;-74
2022/08/23 10:37:56;;;;;;;0.40;0.20;;;25.40;87.50;;;;;;5060338;28;20397;-74
2022/08/23 10:40:27;;;;;;;0.40;0.20;;;25.40;87.90;;;;;;5060150;28;20759;-74
2022/08/23 10:42:59;;;;;;;0.40;0.30;;;25.70;87.40;;;;;;5058625;28;20392;-74
2022/08/23 10:45:33;;;;;;;0.40;0.20;;;25.70;86.30;;;;;;5058627;28;20746;-75
2022/08/23 10:47:59;;;;;;;0.40;0.20;;;25.80;87.10;;;;;;5059635;28;20378;-74
2022/08/23 10:50:29;;;;;;;0.40;0.20;;;26.00;85.50;;;;;;5058531;28;20968;-75
2022/08/23 10:53:15;;;;;;;0.70;0.70;;;26.10;84.80;;;;;;5058499;28;20755;-76
2022/08/23 10:56:02;;;;;;;0.40;0.20;;;26.20;83.50;;;;;;5059891;28;20389;-74
2022/08/23 10:58:40;;;;;;;0.40;0.20;;;26.20;81.80;;;;;;5060195;28;20467;-75
2022/08/23 11:01:06;;;;;;;0.43;0.25;;;26.20;80.40;;;;;;5060390;28;20382;-74
2022/08/23 11:03:50;;;;;;;0.40;0.30;;;26.10;81.10;;;;;;5058181;28;20397;-74
2022/08/23 11:06:34;;;;;;;0.40;0.20;;;26.30;81.20;;;;;;5041162;28;20390;-76
2022/08/23 11:09:08;;;;;;;0.40;0.20;;;26.40;79.70;;;;;;5059252;28;20439;-75
2022/08/23 11:11:45;;;;;;;0.40;0.20;;;26.40;78.80;;;;;;5058476;28;20389;-75
2022/08/23 11:14:27;;;;;;;0.40;0.20;;;26.60;76.90;;;;;;5039890;28;20759;-75
2022/08/23 11:17:01;;;;;;;0.40;0.20;;;26.70;77.40;;;;;;5058551;28;20459;-75
2022/08/23 11:19:58;;;;;;;0.40;0.20;;;26.50;77.30;;;;;;5058033;28;20385;-76
2022/08/23 11:22:31;;;;;;;0.40;0.30;;;26.70;77.30;;;;;;5059164;28;20386;-75
2022/08/23 11:25:26;;;;;;;0.40;0.30;;;26.70;77.10;;;;;;5061932;28;20415;-75
2022/08/23 11:28:22;;;;;;;0.40;0.20;;;26.90;75.90;;;;;;5065677;28;21142;-75
2022/08/23 11:31:09;;;;;;;0.40;0.20;;;27.10;74.40;;;;;;5063967;28;20381;-75
2022/08/23 11:33:46;;;;;;;0.40;0.20;;;27.60;77.00;;;;;;5043508;28;20401;-76
2022/08/23 11:36:11;;;;;;;0.40;0.30;;;27.60;71.90;;;;;;5062008;28;20381;-75
2022/08/23 11:38:46;;;;;;;0.40;0.30;;;28.20;73.20;;;;;;5045891;28;20380;-76
2022/08/23 11:41:23;;;;;;;0.80;0.60;;;28.50;68.80;;;;;;5061043;28;20461;-75
2022/08/23 11:44:12;;;;;;;0.40;0.20;;;29.10;71.40;;;;;;5063067;28;20384;-75
2022/08/23 11:46:53;;;;;;;0.40;0.20;;;29.70;65.10;;;;;;5061830;28;20389;-75
2022/08/23 11:49:28;;;;;;;0.40;0.20;;;30.30;63.60;;;;;;5061963;28;20515;-75
2022/08/23 11:51:56;;;;;;;0.40;0.30;;;30.00;63.80;;;;;;5061486;28;20777;-75
2022/08/23 11:54:46;;;;;;;0.70;0.60;;;30.00;60.90;;;;;;5062903;28;20877;-72
2022/08/23 11:57:48;;;;;;;0.40;0.30;;;30.20;63.60;;;;;;5045515;28;20798;-75
2022/08/23 12:00:18;;;;;;;0.40;0.20;;;30.10;60.60;;;;;;5045467;28;20393;-75
2022/08/23 12:02:54;;;;;;;0.40;0.20;;;30.80;62.10;;;;;;5043048;28;20389;-75
2022/08/23 12:05:31;;;;;;;0.40;0.20;;;30.80;59.00;;;;;;5044085;28;20441;-76
2022/08/23 12:08:02;;;;;;;0.40;0.20;;;29.70;57.20;;;;;;5053495;28;20447;-75
2022/08/23 12:10:36;;;;;;;0.40;0.20;;;30.50;57.40;;;;;;5053508;28;20879;-75
2022/08/23 12:13:20;;;;;;;0.40;0.20;;;30.40;57.50;;;;;;5057819;28;20552;-75
2022/08/23 12:16:11;;;;;;;0.40;0.20;;;30.90;57.80;;;;;;5061342;28;20454;-75
2022/08/23 12:18:53;;;;;;;0.40;0.20;;;30.60;55.30;;;;;;5060510;28;20379;-74
2022/08/23 12:21:43;;;;;;;0.40;0.30;;;30.50;57.10;;;;;;5034685;28;21401;-73
2022/08/23 12:24:32;;;;;;;0.40;0.20;;;31.00;56.50;;;;;;5053141;28;20396;-75
2022/08/23 12:27:03;;;;;;;0.40;0.20;;;30.80;57.80;;;;;;5053147;28;20419;-74
2022/08/23 12:29:50;;;;;;;0.40;0.27;;;31.10;55.70;;;;;;5052972;28;20416;-74
2022/08/23 12:32:29;;;;;;;0.40;0.20;;;31.30;56.10;;;;;;5052865;28;20756;-75
2022/08/23 12:35:37;;;;;;;0.40;0.20;;;30.70;56.40;;;;;;5055470;28;20377;-75
2022/08/23 12:38:14;;;;;;;0.40;0.20;;;30.60;57.00;;;;;;5001384;28;20509;-74
2022/08/23 12:40:46;;;;;;;0.40;0.30;;;30.40;58.80;;;;;;5046986;28;20542;-74
2022/08/23 12:43:12;;;;;;;0.40;0.30;;;29.40;61.80;;;;;;5052517;28;20385;-74
2022/08/23 12:45:44;;;;;;;0.40;0.20;;;29.60;58.00;;;;;;5052851;28;20762;-74
2022/08/23 12:48:15;;;;;;;0.40;0.20;;;30.00;57.80;;;;;;5052729;28;20808;-74
2022/08/23 12:50:44;;;;;;;0.60;0.60;;;30.40;57.40;;;;;;5052744;28;20385;-74
2022/08/23 12:53:14;;;;;;;0.40;0.20;;;30.50;58.20;;;;;;5052203;28;20401;-74
2022/08/23 12:55:48;;;;;;;0.40;0.20;;;30.20;57.20;;;;;;5052550;28;20378;-75
2022/08/23 12:58:24;;;;;;;0.40;0.20;;;30.70;59.90;;;;;;5052606;28;20381;-75
2022/08/23 13:00:55;;;;;;;0.40;0.28;;;31.50;55.20;;;;;;5052551;28;20373;-75
2022/08/23 13:03:32;;;;;;;0.68;0.65;;;31.20;56.60;;;;;;5052356;28;20388;-75
2022/08/23 13:06:04;;;;;;;0.40;0.30;;;31.30;58.00;;;;;;5052454;28;20385;-75
2022/08/23 13:08:43;;;;;;;0.40;0.30;;;31.30;56.00;;;;;;5052501;28;20823;-74
2022/08/23 13:11:11;;;;;;;0.60;0.60;;;30.90;56.50;;;;;;5056395;28;20401;-75
2022/08/23 13:13:39;;;;;;;0.40;0.20;;;30.40;57.40;;;;;;5059803;28;20464;-74
2022/08/23 13:16:27;;;;;;;0.40;0.30;;;30.90;58.10;;;;;;5061743;28;20391;-74
2022/08/23 13:18:54;;;;;;;0.75;0.75;;;30.90;56.10;;;;;;5043583;28;20396;-73